Time;durP1;ratioP1;P1;durP2;ratioP2;P2;SDS_P1;SDS_P2;PMS_P1;PMS_P2;Temp;Humidity;BMP_temperature;BMP_pressure;BME280_temperature;BME280_humidity;BME280_pressure;Samples;Min_cycle;Max_cycle;Signal;HPM_P1;HPM_P2
2021/08/21 00:04:07;;;;;;;15.75;12.18;;;16.40;99.90;;;;;;12567316;28;20097;-42
2021/08/21 00:10:09;;;;;;;17.25;12.85;;;16.10;99.90;;;;;;12595078;28;20044;-42
2021/08/21 00:16:11;;;;;;;20.80;14.35;;;15.90;99.90;;;;;;12575725;28;21006;-43
2021/08/21 00:22:13;;;;;;;19.98;14.30;;;15.70;99.90;;;;;;12555090;28;20036;-43
2021/08/21 00:28:15;;;;;;;21.20;17.00;;;15.60;99.90;;;;;;12604732;28;20060;-42
2021/08/21 00:34:17;;;;;;;24.00;18.55;;;15.60;99.90;;;;;;12594622;28;20094;-44
2021/08/21 00:40:19;;;;;;;24.17;18.23;;;15.50;99.90;;;;;;12582702;28;20044;-42
2021/08/21 00:46:21;;;;;;;33.33;24.70;;;15.40;99.90;;;;;;12598088;28;20091;-44
2021/08/21 00:52:28;;;;;;;32.58;25.15;;;15.50;99.90;;;;;;12600079;28;20447;-42
2021/08/21 00:58:36;;;;;;;37.50;25.27;;;15.70;99.90;;;;;;12601910;28;20116;-42
2021/08/21 01:04:39;;;;;;;37.17;25.42;;;15.60;99.90;;;;;;12588700;28;20523;-44
2021/08/21 01:10:41;;;;;;;32.03;23.92;;;15.70;99.90;;;;;;12581908;28;20060;-43
2021/08/21 01:16:43;;;;;;;33.00;24.85;;;15.60;99.90;;;;;;12602787;28;20109;-43
2021/08/21 01:22:46;;;;;;;34.75;22.23;;;15.50;99.90;;;;;;12596524;28;20101;-43
2021/08/21 01:28:48;;;;;;;27.73;20.75;;;15.50;99.90;;;;;;12610648;28;20459;-42
2021/08/21 01:34:50;;;;;;;22.95;18.45;;;15.80;99.90;;;;;;12592165;28;20044;-42
2021/08/21 01:40:53;;;;;;;28.92;20.15;;;15.90;99.90;;;;;;12587274;28;20044;-43
2021/08/21 01:46:55;;;;;;;33.95;22.02;;;15.90;99.90;;;;;;12596231;28;20101;-43
2021/08/21 01:52:57;;;;;;;34.78;23.10;;;15.90;99.90;;;;;;12602705;28;20048;-42
2021/08/21 01:58:59;;;;;;;26.45;19.40;;;15.80;99.90;;;;;;12599505;28;20055;-43
2021/08/21 02:05:00;;;;;;;31.67;22.27;;;16.00;99.90;;;;;;12608861;28;20557;-42
2021/08/21 02:11:02;;;;;;;28.73;21.73;;;16.00;99.90;;;;;;12610599;28;20139;-42
2021/08/21 02:17:04;;;;;;;26.23;20.02;;;15.90;99.90;;;;;;12576799;28;20135;-42
2021/08/21 02:23:06;;;;;;;27.60;19.67;;;15.80;99.90;;;;;;12598677;28;20482;-42
2021/08/21 02:29:09;;;;;;;28.33;18.65;;;15.40;99.90;;;;;;12591821;28;20101;-43
2021/08/21 02:35:11;;;;;;;30.55;18.15;;;15.30;99.90;;;;;;12595795;28;20073;-42
2021/08/21 02:41:13;;;;;;;29.80;20.20;;;15.30;99.90;;;;;;12589222;28;20040;-45
2021/08/21 02:47:15;;;;;;;28.85;17.92;;;15.30;99.90;;;;;;12603158;28;20105;-42
2021/08/21 02:53:17;;;;;;;24.30;18.27;;;15.40;99.90;;;;;;12597056;28;21009;-42
2021/08/21 02:59:18;;;;;;;27.10;18.33;;;15.60;99.90;;;;;;12595341;28;20450;-43
2021/08/21 03:05:20;;;;;;;19.48;16.33;;;15.50;99.90;;;;;;12616531;28;20548;-43
2021/08/21 03:11:22;;;;;;;24.73;18.10;;;15.50;99.90;;;;;;12591026;28;20132;-42
2021/08/21 03:17:24;;;;;;;26.05;19.55;;;15.10;99.90;;;;;;12604558;28;20055;-42
2021/08/21 03:23:26;;;;;;;32.38;21.73;;;14.90;99.90;;;;;;12586937;28;20091;-44
2021/08/21 03:29:28;;;;;;;33.10;22.90;;;15.10;99.90;;;;;;12600552;28;21004;-43
2021/08/21 03:35:30;;;;;;;31.50;22.40;;;15.20;99.90;;;;;;12600021;28;20400;-43
2021/08/21 03:41:32;;;;;;;34.78;22.33;;;15.30;99.90;;;;;;12604329;28;20054;-42
2021/08/21 03:47:34;;;;;;;32.92;23.25;;;15.40;99.90;;;;;;12600294;28;20048;-43
2021/08/21 03:53:35;;;;;;;33.30;22.00;;;15.40;99.90;;;;;;12596312;28;20043;-42
2021/08/21 03:59:37;;;;;;;33.50;23.05;;;15.40;99.90;;;;;;12587219;28;20060;-43
2021/08/21 04:05:41;;;;;;;30.85;20.50;;;15.50;99.90;;;;;;12598606;28;20052;-42
2021/08/21 04:11:43;;;;;;;20.02;17.02;;;15.50;99.90;;;;;;12573398;28;20507;-43
2021/08/21 04:17:45;;;;;;;24.02;16.60;;;15.70;99.90;;;;;;12616888;28;20040;-42
2021/08/21 04:23:46;;;;;;;18.95;16.23;;;15.70;99.90;;;;;;12600443;28;20109;-43
2021/08/21 04:29:51;;;;;;;17.98;15.05;;;15.70;99.90;;;;;;12603493;28;20048;-44
2021/08/21 04:35:54;;;;;;;21.80;16.13;;;15.70;99.90;;;;;;12601173;28;20058;-42
2021/08/21 04:41:56;;;;;;;21.92;15.20;;;15.70;99.90;;;;;;12589910;28;20041;-42
2021/08/21 04:47:59;;;;;;;18.20;15.63;;;15.80;99.90;;;;;;12611997;28;20385;-42
2021/08/21 04:54:01;;;;;;;24.10;15.13;;;15.70;99.90;;;;;;12610998;28;20044;-42
2021/08/21 05:00:04;;;;;;;23.48;14.30;;;15.80;99.90;;;;;;12607585;28;20060;-44
2021/08/21 05:06:06;;;;;;;17.52;14.73;;;15.80;99.90;;;;;;12628494;28;20116;-43
2021/08/21 05:12:08;;;;;;;20.05;15.40;;;15.80;99.90;;;;;;12605306;28;20044;-42
2021/08/21 05:18:12;;;;;;;19.83;15.63;;;15.70;99.90;;;;;;12611370;28;20409;-42
2021/08/21 05:24:14;;;;;;;;;;;15.80;99.90;;;;;;12606976;28;20043;-43
2021/08/21 05:30:17;;;;;;;18.52;15.77;;;15.90;99.90;;;;;;12605533;28;20309;-42
2021/08/21 05:36:19;;;;;;;23.02;17.13;;;16.00;99.90;;;;;;12613720;28;20056;-42
2021/08/21 05:42:21;;;;;;;20.48;16.35;;;15.90;99.90;;;;;;12609523;28;20052;-43
2021/08/21 05:48:23;;;;;;;20.60;15.35;;;16.00;99.90;;;;;;12615585;28;20546;-42
2021/08/21 05:54:26;;;;;;;21.98;16.77;;;16.00;99.90;;;;;;12618306;28;20051;-45
2021/08/21 06:00:28;;;;;;;22.05;17.30;;;16.10;99.90;;;;;;12606709;28;20074;-42
2021/08/21 06:06:30;;;;;;;20.92;16.27;;;16.20;99.90;;;;;;12618824;28;20500;-42
2021/08/21 06:12:32;;;;;;;24.67;17.83;;;16.30;99.90;;;;;;12597963;28;20103;-44
2021/08/21 06:18:34;;;;;;;21.23;16.98;;;16.30;99.90;;;;;;12612312;28;20044;-43
2021/08/21 06:24:37;;;;;;;30.02;19.35;;;16.30;99.90;;;;;;12596664;28;20043;-43
2021/08/21 06:30:39;;;;;;;22.77;16.40;;;16.30;99.90;;;;;;12600660;28;21221;-42
2021/08/21 06:36:40;;;;;;;27.35;18.55;;;16.30;99.90;;;;;;12622884;28;20052;-42
2021/08/21 06:42:42;;;;;;;25.73;18.45;;;16.30;99.90;;;;;;12601844;28;20586;-43
2021/08/21 06:48:45;;;;;;;24.98;19.40;;;16.40;99.90;;;;;;12595841;28;20047;-44
2021/08/21 06:54:46;;;;;;;27.23;19.00;;;16.40;99.90;;;;;;12597372;28;20462;-42
2021/08/21 07:00:50;;;;;;;31.73;19.30;;;16.40;99.90;;;;;;12593402;28;20376;-44
2021/08/21 07:06:56;;;;;;;28.85;21.13;;;16.60;99.90;;;;;;12585396;28;20496;-42
2021/08/21 07:12:58;;;;;;;28.67;19.13;;;16.70;99.90;;;;;;12602506;28;20098;-44
2021/08/21 07:19:00;;;;;;;26.70;19.10;;;17.00;99.90;;;;;;12599715;28;20043;-44
2021/08/21 07:25:04;;;;;;;31.27;20.43;;;17.00;99.90;;;;;;12579590;28;21752;-44
2021/08/21 07:31:06;;;;;;;25.35;16.95;;;17.20;99.90;;;;;;12595258;28;20048;-43
2021/08/21 07:37:08;;;;;;;24.45;16.15;;;17.30;99.90;;;;;;12596390;28;20125;-43
2021/08/21 07:43:10;;;;;;;30.02;19.15;;;17.50;99.90;;;;;;12592047;28;20078;-43
2021/08/21 07:49:12;;;;;;;31.58;20.23;;;17.60;99.90;;;;;;12603049;28;20105;-43
2021/08/21 07:55:14;;;;;;;28.88;20.75;;;17.80;99.90;;;;;;12585390;28;20409;-42
2021/08/21 08:01:16;;;;;;;28.80;19.58;;;18.10;99.90;;;;;;12578487;28;20056;-43
2021/08/21 08:07:19;;;;;;;30.85;20.83;;;18.30;99.90;;;;;;12601966;28;20044;-43
2021/08/21 08:13:21;;;;;;;29.02;20.58;;;18.40;99.90;;;;;;12604181;28;20080;-44
2021/08/21 08:19:23;;;;;;;31.73;21.50;;;18.40;99.90;;;;;;12618517;28;20077;-44
2021/08/21 08:25:25;;;;;;;30.08;20.88;;;18.60;99.90;;;;;;12611226;28;20059;-44
2021/08/21 08:31:27;;;;;;;27.58;19.35;;;18.70;99.90;;;;;;12613511;28;20691;-44
2021/08/21 08:37:29;;;;;;;26.88;19.60;;;18.90;99.90;;;;;;12601065;28;20048;-44
2021/08/21 08:43:32;;;;;;;28.83;18.10;;;19.00;99.90;;;;;;12599771;28;20101;-44
2021/08/21 08:49:35;;;;;;;29.38;18.55;;;19.10;99.90;;;;;;12588736;28;20048;-43
2021/08/21 08:55:39;;;;;;;27.30;18.45;;;19.40;99.90;;;;;;12590315;28;20105;-43
2021/08/21 09:01:42;;;;;;;26.77;18.40;;;19.70;99.90;;;;;;12587771;28;20052;-44
2021/08/21 09:07:46;;;;;;;26.52;17.25;;;19.90;99.90;;;;;;12584326;28;20488;-43
2021/08/21 09:13:50;;;;;;;23.20;16.73;;;20.00;99.90;;;;;;12592203;28;20052;-44
2021/08/21 09:20:05;;;;;;;23.10;16.85;;;20.00;99.90;;;;;;12593792;28;20263;-44
2021/08/21 09:26:25;;;;;;;24.75;17.52;;;20.30;99.90;;;;;;12610589;28;20076;-45
2021/08/21 09:32:29;;;;;;;23.63;16.13;;;20.20;99.90;;;;;;12591441;28;20045;-44
2021/08/21 09:38:34;;;;;;;23.02;17.42;;;20.20;99.90;;;;;;12597360;28;20051;-43
2021/08/21 09:44:42;;;;;;;21.48;14.88;;;20.10;99.90;;;;;;12614877;28;20886;-46
2021/08/21 09:50:44;;;;;;;22.17;14.52;;;20.30;99.90;;;;;;12619315;28;20092;-44
2021/08/21 09:56:54;;;;;;;16.95;12.90;;;20.40;99.90;;;;;;12613986;28;20044;-43
2021/08/21 10:02:58;;;;;;;19.27;13.32;;;20.70;99.90;;;;;;12610302;28;20052;-46
2021/08/21 10:09:05;;;;;;;16.23;13.13;;;20.60;99.90;;;;;;12585471;28;20083;-48
2021/08/21 10:15:07;;;;;;;13.70;11.30;;;20.60;99.90;;;;;;12586567;28;20048;-47
2021/08/21 10:21:10;;;;;;;18.58;13.02;;;21.00;99.90;;;;;;12581005;28;20045;-45
2021/08/21 10:27:28;;;;;;;17.42;12.07;;;20.80;99.90;;;;;;12586379;28;20041;-43
2021/08/21 10:33:56;;;;;;;13.05;9.98;;;20.80;99.90;;;;;;12596023;28;20041;-46
2021/08/21 10:39:58;;;;;;;17.10;12.93;;;20.70;99.90;;;;;;12606431;28;20048;-44
2021/08/21 10:46:00;;;;;;;16.25;11.93;;;20.60;99.90;;;;;;12597919;28;20048;-47
2021/08/21 10:52:08;;;;;;;20.23;14.38;;;20.50;99.90;;;;;;12617190;28;20048;-44
2021/08/21 10:58:22;;;;;;;21.25;12.10;;;20.50;99.90;;;;;;12586872;28;20052;-46
2021/08/21 11:04:34;;;;;;;18.85;13.05;;;20.90;99.90;;;;;;12593228;28;20063;-46
2021/08/21 11:10:36;;;;;;;18.55;12.90;;;21.00;99.90;;;;;;12594848;28;20087;-43
2021/08/21 11:16:51;;;;;;;15.55;12.63;;;21.10;99.90;;;;;;12610942;28;20100;-44
2021/08/21 11:23:08;;;;;;;14.18;10.23;;;21.50;99.90;;;;;;12597946;28;20055;-43
2021/08/21 11:29:10;;;;;;;17.65;12.57;;;22.00;99.90;;;;;;12613107;28;20044;-43
2021/08/21 11:35:21;;;;;;;13.05;10.63;;;21.70;99.90;;;;;;12585645;28;20048;-46
2021/08/21 11:41:23;;;;;;;16.00;11.13;;;21.60;99.90;;;;;;12593331;28;20814;-45
2021/08/21 11:47:31;;;;;;;13.70;10.80;;;21.60;99.90;;;;;;12616044;28;20047;-46
2021/08/21 11:53:41;;;;;;;13.30;10.55;;;21.60;99.90;;;;;;12596663;28;20100;-43
2021/08/21 11:59:43;;;;;;;11.70;8.82;;;21.80;99.90;;;;;;12600030;28;20065;-43
2021/08/21 12:05:45;;;;;;;11.43;8.40;;;22.40;99.90;;;;;;12598301;28;20048;-48
2021/08/21 12:11:49;;;;;;;7.03;5.50;;;22.50;99.90;;;;;;12610248;28;20082;-43
2021/08/21 12:17:52;;;;;;;7.88;6.90;;;22.50;99.90;;;;;;12618388;28;21132;-44
2021/08/21 12:23:55;;;;;;;9.50;6.80;;;22.70;99.90;;;;;;12603242;28;20048;-44
2021/08/21 12:30:14;;;;;;;9.48;6.10;;;23.00;99.90;;;;;;12607148;28;20435;-43
2021/08/21 12:36:21;;;;;;;8.77;4.68;;;23.90;99.90;;;;;;12560173;28;20063;-50
2021/08/21 12:42:23;;;;;;;7.22;3.97;;;24.00;99.90;;;;;;12610047;28;20404;-44
2021/08/21 12:48:25;;;;;;;6.80;4.13;;;23.80;99.90;;;;;;12597384;28;20049;-45
2021/08/21 12:54:35;;;;;;;5.88;4.07;;;24.20;99.90;;;;;;12610325;28;20087;-44
2021/08/21 13:00:40;;;;;;;6.97;3.97;;;24.70;99.90;;;;;;12610465;28;20056;-44
2021/08/21 13:07:00;;;;;;;5.85;3.28;;;24.90;99.90;;;;;;12579373;28;20415;-44
2021/08/21 13:13:03;;;;;;;5.82;2.67;;;25.10;99.90;;;;;;12594808;28;20862;-44
2021/08/21 13:19:06;;;;;;;4.07;2.83;;;25.20;99.90;;;;;;12614218;28;20055;-43
2021/08/21 13:25:08;;;;;;;4.20;2.70;;;25.20;99.90;;;;;;12614462;28;20096;-44
2021/08/21 13:31:10;;;;;;;3.60;2.00;;;25.50;99.90;;;;;;12622238;28;20496;-44
2021/08/21 13:37:14;;;;;;;3.33;2.30;;;25.50;99.90;;;;;;12617609;28;20056;-43
2021/08/21 13:43:16;;;;;;;5.88;2.58;;;24.80;99.90;;;;;;12619810;28;20159;-43
2021/08/21 13:49:18;;;;;;;5.63;2.47;;;24.90;99.90;;;;;;12596257;28;20036;-44
2021/08/21 13:55:21;;;;;;;3.27;2.20;;;25.10;99.90;;;;;;12606407;28;20067;-43
2021/08/21 14:01:23;;;;;;;3.15;2.25;;;25.20;99.90;;;;;;12598503;28;20048;-45
2021/08/21 14:07:26;;;;;;;3.67;2.30;;;25.30;99.90;;;;;;12608423;28;20090;-44
2021/08/21 14:13:28;;;;;;;4.75;2.42;;;25.70;99.90;;;;;;12622229;28;20816;-44
2021/08/21 14:19:30;;;;;;;3.63;2.20;;;25.80;99.90;;;;;;12610588;28;20054;-43
2021/08/21 14:25:32;;;;;;;3.20;2.17;;;25.80;99.90;;;;;;12620828;28;20751;-44
2021/08/21 14:31:47;;;;;;;4.05;2.10;;;25.80;99.90;;;;;;12615851;28;20519;-46
2021/08/21 14:37:52;;;;;;;3.53;2.28;;;26.00;99.90;;;;;;12620466;28;20057;-45
2021/08/21 14:44:17;;;;;;;4.30;2.60;;;24.90;99.90;;;;;;12617372;28;20055;-44
2021/08/21 14:50:27;;;;;;;3.15;2.00;;;25.20;99.90;;;;;;12626769;28;20085;-43
2021/08/21 14:56:32;;;;;;;3.58;2.00;;;25.60;99.90;;;;;;12623599;28;20059;-43
2021/08/21 15:02:34;;;;;;;3.88;2.25;;;25.30;99.90;;;;;;12617530;28;20060;-46
2021/08/21 15:08:37;;;;;;;;;;;25.60;99.90;;;;;;12607977;28;20040;-43
2021/08/21 15:14:39;;;;;;;2.47;1.77;;;25.80;99.90;;;;;;12626741;28;19928;-44
2021/08/21 15:20:41;;;;;;;4.55;2.05;;;25.80;99.90;;;;;;12628747;28;20080;-43
2021/08/21 15:26:44;;;;;;;3.30;2.20;;;25.50;99.90;;;;;;12618719;28;20056;-43
2021/08/21 15:32:49;;;;;;;2.85;2.10;;;25.00;99.90;;;;;;12602821;28;20044;-45
2021/08/21 15:38:52;;;;;;;4.13;2.00;;;24.50;99.90;;;;;;12616491;28;20055;-43
2021/08/21 15:44:55;;;;;;;3.70;1.75;;;24.10;99.90;;;;;;12615111;28;20096;-43
2021/08/21 15:50:58;;;;;;;3.67;2.28;;;23.80;99.90;;;;;;12609489;28;20052;-46
2021/08/21 15:57:00;;;;;;;3.35;2.05;;;23.50;99.90;;;;;;12610085;28;20055;-44
2021/08/21 16:03:02;;;;;;;4.10;2.30;;;23.30;99.90;;;;;;12611054;28;20059;-44
2021/08/21 16:09:04;;;;;;;2.85;2.08;;;22.90;99.90;;;;;;12620161;28;20059;-43
2021/08/21 16:15:08;;;;;;;3.15;2.40;;;22.70;99.90;;;;;;12615634;28;20044;-45
2021/08/21 16:21:13;;;;;;;5.35;2.20;;;22.50;99.90;;;;;;12622050;28;20787;-45
2021/08/21 16:27:17;;;;;;;3.33;2.13;;;22.40;99.90;;;;;;12611475;28;20241;-43
2021/08/21 16:33:19;;;;;;;5.82;2.17;;;22.40;99.90;;;;;;12596511;28;20048;-45
2021/08/21 16:39:22;;;;;;;3.67;2.20;;;22.20;99.90;;;;;;12606969;28;20543;-44
2021/08/21 16:45:25;;;;;;;5.15;2.08;;;22.10;99.90;;;;;;12605199;28;20051;-45
2021/08/21 16:51:27;;;;;;;3.67;2.20;;;22.10;99.90;;;;;;12607674;28;20089;-42
2021/08/21 16:57:29;;;;;;;4.60;2.10;;;22.00;99.90;;;;;;12632202;28;20077;-48
2021/08/21 17:03:31;;;;;;;3.78;2.28;;;21.90;99.90;;;;;;12584630;28;20068;-43
2021/08/21 17:09:34;;;;;;;3.90;2.50;;;21.80;99.90;;;;;;12621479;28;20052;-43
2021/08/21 17:15:36;;;;;;;6.37;2.67;;;21.60;99.90;;;;;;12620208;28;20063;-45
2021/08/21 17:21:39;;;;;;;4.00;2.87;;;21.50;99.90;;;;;;12616988;28;20373;-43
2021/08/21 17:27:41;;;;;;;8.63;3.00;;;21.40;99.90;;;;;;12593274;28;20138;-48
2021/08/21 17:33:43;;;;;;;6.95;3.47;;;21.40;99.90;;;;;;12615500;28;20499;-45
2021/08/21 17:39:46;;;;;;;4.13;2.97;;;21.30;99.90;;;;;;12613636;28;20051;-43
2021/08/21 17:45:48;;;;;;;4.70;2.50;;;21.10;99.90;;;;;;12615768;28;20756;-44
2021/08/21 17:51:51;;;;;;;7.47;2.67;;;21.10;99.90;;;;;;12608663;28;20549;-43
2021/08/21 17:57:53;;;;;;;5.22;2.95;;;20.90;99.90;;;;;;12582269;28;20048;-47
2021/08/21 18:03:56;;;;;;;4.82;2.75;;;20.80;99.90;;;;;;12592147;28;20484;-43
2021/08/21 18:09:58;;;;;;;3.80;2.70;;;20.80;99.90;;;;;;12621461;28;20041;-43
2021/08/21 18:16:01;;;;;;;6.05;3.00;;;20.70;99.90;;;;;;12621982;28;20040;-44
2021/08/21 18:22:09;;;;;;;4.65;3.33;;;20.70;99.90;;;;;;12614244;28;20051;-42
2021/08/21 18:28:13;;;;;;;5.93;3.63;;;20.40;99.90;;;;;;12595043;28;20565;-42
2021/08/21 18:34:15;;;;;;;4.78;3.30;;;20.40;99.90;;;;;;12597141;28;20060;-44
2021/08/21 18:40:17;;;;;;;6.22;3.67;;;20.40;99.90;;;;;;12619562;28;20452;-42
2021/08/21 18:46:20;;;;;;;6.07;3.20;;;20.40;99.90;;;;;;12567532;28;20525;-44
2021/08/21 18:52:24;;;;;;;5.33;2.90;;;20.20;99.90;;;;;;12607566;28;20058;-47
2021/08/21 18:58:29;;;;;;;6.20;3.20;;;20.20;99.90;;;;;;12587704;28;20298;-43
2021/08/21 19:04:31;;;;;;;5.78;3.30;;;20.20;99.90;;;;;;12600754;28;20582;-44
2021/08/21 19:10:33;;;;;;;5.95;3.35;;;20.10;99.90;;;;;;12586936;28;20060;-45
2021/08/21 19:16:35;;;;;;;7.60;4.15;;;19.90;99.90;;;;;;12607559;28;20059;-46
2021/08/21 19:22:38;;;;;;;4.70;3.20;;;19.90;99.90;;;;;;12605839;28;20400;-43
2021/08/21 19:28:41;;;;;;;6.88;4.20;;;19.90;99.90;;;;;;12593832;28;20083;-44
2021/08/21 19:34:43;;;;;;;5.75;3.90;;;19.80;99.90;;;;;;12603779;28;20135;-44
2021/08/21 19:40:45;;;;;;;5.68;3.45;;;19.70;99.90;;;;;;12599893;28;20052;-46
2021/08/21 19:46:47;;;;;;;9.68;4.07;;;19.70;99.90;;;;;;12592283;28;20048;-44
2021/08/21 19:52:49;;;;;;;4.95;3.80;;;19.70;99.90;;;;;;12597039;28;20048;-43
2021/08/21 19:58:50;;;;;;;11.63;4.28;;;19.60;99.90;;;;;;12589342;28;20090;-44
2021/08/21 20:04:53;;;;;;;6.38;4.10;;;19.70;99.90;;;;;;12589566;28;20131;-46
2021/08/21 20:10:55;;;;;;;6.97;4.28;;;19.50;99.90;;;;;;12584316;28;20416;-44
2021/08/21 20:16:56;;;;;;;5.72;3.70;;;19.60;99.90;;;;;;12588940;28;20048;-48
2021/08/21 20:22:58;;;;;;;8.35;4.07;;;19.60;99.90;;;;;;12603184;28;20076;-43
2021/08/21 20:29:00;;;;;;;6.40;4.43;;;19.40;99.90;;;;;;12596174;28;20510;-43
2021/08/21 20:35:03;;;;;;;5.55;3.90;;;19.30;99.90;;;;;;12603308;28;20044;-43
2021/08/21 20:41:05;;;;;;;5.72;3.97;;;19.20;99.90;;;;;;12602536;28;20041;-45
2021/08/21 20:47:07;;;;;;;6.10;4.22;;;19.20;99.90;;;;;;12598391;28;20080;-46
2021/08/21 20:53:09;;;;;;;9.60;4.35;;;19.00;99.90;;;;;;12591992;28;20592;-43
2021/08/21 20:59:10;;;;;;;6.43;4.28;;;18.90;99.90;;;;;;12602048;28;20417;-42
2021/08/21 21:05:13;;;;;;;8.48;3.88;;;18.90;99.90;;;;;;12600123;28;20048;-44
2021/08/21 21:11:15;;;;;;;8.02;4.35;;;18.90;99.90;;;;;;12599642;28;20790;-42
2021/08/21 21:17:16;;;;;;;5.38;3.88;;;18.90;99.90;;;;;;12599025;28;20098;-43
2021/08/21 21:23:19;;;;;;;6.65;4.13;;;18.90;99.90;;;;;;12575384;28;20371;-48
2021/08/21 21:29:21;;;;;;;6.05;4.00;;;19.00;99.90;;;;;;12591249;28;20056;-43
2021/08/21 21:35:23;;;;;;;6.18;4.30;;;19.10;99.90;;;;;;12594293;28;20048;-43
2021/08/21 21:41:24;;;;;;;5.65;4.00;;;19.10;99.90;;;;;;12600072;28;20569;-48
2021/08/21 21:47:26;;;;;;;7.38;4.25;;;19.00;99.90;;;;;;12610427;28;20480;-43
2021/08/21 21:53:29;;;;;;;5.90;4.00;;;19.00;99.90;;;;;;12616683;28;20048;-43
2021/08/21 21:59:31;;;;;;;7.10;4.07;;;18.90;99.90;;;;;;12605053;28;20097;-44
2021/08/21 22:05:39;;;;;;;9.00;4.32;;;19.00;99.90;;;;;;12605138;28;20109;-45
2021/08/21 22:11:41;;;;;;;6.05;4.30;;;18.90;99.90;;;;;;12594651;28;20045;-44
2021/08/21 22:17:43;;;;;;;6.03;4.18;;;18.90;99.90;;;;;;12611302;28;20055;-42
2021/08/21 22:23:54;;;;;;;7.13;4.30;;;18.90;99.90;;;;;;12596577;28;20053;-43
2021/08/21 22:29:56;;;;;;;4.70;4.10;;;18.80;99.90;;;;;;12602057;28;20052;-43
2021/08/21 22:35:59;;;;;;;10.32;4.00;;;18.80;99.90;;;;;;12600346;28;20074;-44
2021/08/21 22:42:02;;;;;;;5.57;4.20;;;18.90;99.90;;;;;;12596537;28;20287;-44
2021/08/21 22:48:05;;;;;;;7.83;4.57;;;18.70;99.90;;;;;;12587396;28;20492;-43
2021/08/21 22:54:06;;;;;;;6.90;5.05;;;18.60;99.90;;;;;;12599027;28;20162;-43
2021/08/21 23:00:09;;;;;;;5.75;4.72;;;18.50;99.90;;;;;;12611158;28;20051;-44
2021/08/21 23:06:11;;;;;;;5.93;4.47;;;18.60;99.90;;;;;;12595511;28;21124;-42
2021/08/21 23:12:13;;;;;;;8.15;4.70;;;18.60;99.90;;;;;;12604237;28;20052;-43
2021/08/21 23:18:15;;;;;;;9.95;5.22;;;18.60;99.90;;;;;;12604687;28;20599;-44
2021/08/21 23:24:17;;;;;;;8.18;5.70;;;18.70;99.90;;;;;;12570253;28;20049;-43
2021/08/21 23:30:19;;;;;;;9.65;4.90;;;18.60;99.90;;;;;;12600893;28;20075;-44
2021/08/21 23:36:22;;;;;;;5.93;4.15;;;18.70;99.90;;;;;;12586634;28;20117;-47
2021/08/21 23:42:24;;;;;;;7.88;4.80;;;18.70;99.90;;;;;;12611757;28;20047;-43
2021/08/21 23:48:27;;;;;;;5.95;4.35;;;18.60;99.90;;;;;;12611902;28;20056;-47
2021/08/21 23:54:30;;;;;;;6.97;4.97;;;18.50;99.90;;;;;;12615895;28;20051;-44
